createdAt,value
2022-10-28T00:01:18.559Z,6.85
2022-10-28T00:03:54.882Z,6.57
2022-10-28T00:06:26.641Z,7.03
2022-10-28T00:08:53.921Z,6.50
2022-10-28T00:11:24.465Z,6.97
2022-10-28T00:13:56.606Z,7.00
2022-10-28T00:16:26.846Z,7.43
2022-10-28T00:18:54.707Z,7.68
2022-10-28T00:21:25.005Z,7.57
2022-10-28T00:23:52.292Z,7.90
2022-10-28T00:26:21.830Z,7.88
2022-10-28T00:29:08.242Z,7.07
2022-10-28T00:31:35.796Z,7.53
2022-10-28T00:34:04.845Z,7.57
2022-10-28T00:36:34.838Z,7.80
2022-10-28T00:39:02.826Z,7.57
2022-10-28T00:41:34.151Z,7.80
2022-10-28T00:44:21.117Z,7.80
2022-10-28T00:46:50.971Z,7.75
2022-10-28T00:49:26.447Z,7.88
2022-10-28T00:51:58.197Z,8.75
2022-10-28T00:54:25.226Z,9.10
2022-10-28T00:56:56.564Z,9.38
2022-10-28T00:59:36.216Z,8.68
2022-10-28T01:02:03.623Z,9.20
2022-10-28T01:04:30.546Z,8.45
2022-10-28T01:07:00.068Z,9.65
2022-10-28T01:09:26.918Z,10.45
2022-10-28T01:12:01.660Z,9.98
2022-10-28T01:14:44.010Z,9.68
2022-10-28T01:17:20.006Z,9.38
2022-10-28T01:20:10.042Z,9.27
2022-10-28T01:22:50.583Z,8.68
2022-10-28T01:25:54.288Z,8.13
2022-10-28T01:28:57.901Z,8.80
2022-10-28T01:32:05.562Z,8.35
2022-10-28T01:34:49.431Z,7.93
2022-10-28T01:37:25.328Z,8.48
2022-10-28T01:40:20.521Z,8.30
2022-10-28T01:42:55.864Z,9.10
2022-10-28T01:45:35.591Z,8.85
2022-10-28T01:48:25.442Z,8.48
2022-10-28T01:51:30.041Z,8.38
2022-10-28T01:53:59.931Z,9.90
2022-10-28T01:56:31.113Z,9.15
2022-10-28T01:59:00.803Z,8.48
2022-10-28T02:01:29.999Z,8.75
2022-10-28T02:03:57.528Z,9.85
2022-10-28T02:06:26.974Z,9.60
2022-10-28T02:09:19.788Z,9.38
2022-10-28T02:12:10.060Z,9.43
2022-10-28T02:14:42.715Z,8.95
2022-10-28T02:17:40.286Z,8.82
2022-10-28T02:20:25.085Z,9.70
2022-10-28T02:23:01.056Z,8.93
2022-10-28T02:25:40.207Z,10.40
2022-10-28T02:28:13.158Z,9.70
2022-10-28T02:30:51.112Z,9.07
2022-10-28T02:33:26.377Z,9.50
2022-10-28T02:35:58.887Z,10.15
2022-10-28T02:38:36.204Z,10.43
2022-10-28T02:41:09.661Z,10.30
2022-10-28T02:43:38.098Z,11.20
2022-10-28T02:46:06.410Z,10.65
2022-10-28T02:49:03.175Z,11.32
2022-10-28T02:51:35.820Z,10.77
2022-10-28T02:54:08.686Z,10.05
2022-10-28T02:56:40.075Z,11.30
2022-10-28T02:59:13.246Z,11.77
2022-10-28T03:01:40.557Z,11.05
2022-10-28T03:06:35.249Z,11.70
2022-10-28T03:09:02.096Z,9.85
2022-10-28T03:11:28.920Z,11.00
2022-10-28T03:13:55.575Z,11.50
2022-10-28T03:16:22.492Z,10.95
2022-10-28T03:18:52.216Z,11.00
2022-10-28T03:21:19.077Z,11.02
2022-10-28T03:23:45.810Z,11.00
2022-10-28T03:26:12.530Z,11.63
2022-10-28T03:28:39.179Z,12.25
2022-10-28T03:31:06.264Z,11.88
2022-10-28T03:33:33.547Z,12.35
2022-10-28T03:36:00.308Z,11.77
2022-10-28T03:38:27.072Z,12.27
2022-10-28T03:40:53.833Z,13.52
2022-10-28T03:43:20.463Z,12.45
2022-10-28T03:45:47.949Z,12.57
2022-10-28T03:48:15.033Z,12.68
2022-10-28T03:50:41.895Z,12.27
2022-10-28T03:53:08.671Z,12.57
2022-10-28T03:55:35.551Z,12.32
2022-10-28T03:58:02.671Z,12.43
2022-10-28T04:00:30.289Z,12.70
2022-10-28T04:02:57.249Z,12.23
2022-10-28T04:05:24.036Z,11.68
2022-10-28T04:07:50.766Z,12.07
2022-10-28T04:10:17.608Z,12.27
2022-10-28T04:12:44.263Z,11.10
2022-10-28T04:15:10.975Z,11.88
2022-10-28T04:17:37.671Z,10.98
2022-10-28T04:20:04.825Z,11.15
2022-10-28T04:22:31.459Z,11.50
2022-10-28T04:24:58.506Z,12.10
2022-10-28T04:27:25.319Z,10.68
2022-10-28T04:29:52.051Z,11.15
2022-10-28T04:32:18.691Z,11.27
2022-10-28T04:34:45.335Z,11.38
2022-10-28T04:37:12.813Z,11.02
2022-10-28T04:39:40.684Z,11.80
2022-10-28T04:42:07.368Z,11.48
2022-10-28T04:44:34.297Z,12.18
2022-10-28T04:47:00.964Z,11.18
2022-10-28T04:49:27.768Z,12.27
2022-10-28T04:51:54.524Z,11.82
2022-10-28T04:54:21.159Z,12.35
2022-10-28T04:56:48.175Z,12.18
2022-10-28T04:59:14.939Z,12.48
2022-10-28T05:01:41.781Z,12.73
2022-10-28T05:04:08.640Z,12.90
2022-10-28T05:06:35.366Z,12.77
2022-10-28T05:09:02.216Z,13.68
2022-10-28T05:11:28.963Z,13.38
2022-10-28T05:13:55.764Z,13.38
2022-10-28T05:16:22.535Z,14.20
2022-10-28T05:18:49.349Z,14.43
2022-10-28T05:21:16.703Z,13.35
2022-10-28T05:23:43.356Z,12.90
2022-10-28T05:26:10.022Z,12.75
2022-10-28T05:28:36.662Z,13.60
2022-10-28T05:31:03.403Z,19.02
2022-10-28T05:33:30.227Z,19.40
2022-10-28T05:36:02.236Z,19.23
2022-10-28T05:38:29.363Z,18.80
2022-10-28T05:40:56.098Z,15.88
2022-10-28T05:43:22.999Z,17.90
2022-10-28T05:45:57.546Z,15.32
2022-10-28T05:48:24.854Z,14.57
2022-10-28T05:50:51.488Z,14.55
2022-10-28T05:53:18.218Z,14.13
2022-10-28T05:55:47.636Z,14.60
2022-10-28T05:58:14.980Z,14.00
2022-10-28T06:00:41.626Z,13.52
2022-10-28T06:03:12.051Z,14.32
2022-10-28T06:05:42.881Z,14.07
2022-10-28T06:08:12.003Z,13.63
2022-10-28T06:10:39.693Z,14.18
2022-10-28T06:13:05.149Z,12.63
2022-10-28T06:15:31.780Z,12.98
2022-10-28T06:17:58.550Z,13.63
2022-10-28T06:20:25.472Z,12.32
2022-10-28T06:22:54.352Z,12.32
2022-10-28T06:25:22.204Z,12.68
2022-10-28T06:27:56.613Z,13.13
2022-10-28T06:30:25.209Z,13.70
2022-10-28T06:32:54.846Z,13.65
2022-10-28T06:35:21.889Z,13.77
2022-10-28T06:37:55.711Z,13.52
2022-10-28T06:40:24.484Z,13.45
2022-10-28T06:43:05.500Z,13.02
2022-10-28T06:45:33.619Z,13.65
2022-10-28T06:48:04.361Z,14.35
2022-10-28T06:50:32.109Z,14.52
2022-10-28T06:52:59.772Z,14.10
2022-10-28T06:55:28.079Z,14.88
2022-10-28T06:57:58.946Z,14.25
2022-10-28T07:00:27.023Z,14.93
2022-10-28T07:02:54.639Z,14.27
2022-10-28T07:05:22.801Z,13.95
2022-10-28T07:07:50.297Z,14.50
2022-10-28T07:10:17.158Z,14.18
2022-10-28T07:12:43.844Z,15.02
2022-10-28T07:15:11.031Z,15.10
2022-10-28T07:17:37.902Z,15.55
2022-10-28T07:20:05.144Z,15.07
2022-10-28T07:22:31.997Z,19.08
2022-10-28T07:24:58.683Z,20.33
2022-10-28T07:27:25.983Z,16.55
2022-10-28T07:29:53.350Z,16.27
2022-10-28T07:32:20.189Z,16.75
2022-10-28T07:34:47.685Z,15.98
2022-10-28T07:37:15.475Z,15.65
2022-10-28T07:39:42.304Z,15.65
2022-10-28T07:42:09.173Z,16.67
2022-10-28T07:44:35.867Z,16.55
2022-10-28T07:47:02.545Z,16.80
2022-10-28T07:49:29.160Z,15.45
2022-10-28T07:51:56.628Z,18.35
2022-10-28T07:54:23.384Z,17.25
2022-10-28T07:56:50.240Z,16.95
2022-10-28T07:59:16.913Z,16.55
2022-10-28T08:01:43.602Z,16.40
2022-10-28T08:04:10.278Z,15.98
2022-10-28T08:06:36.989Z,15.45
2022-10-28T08:09:03.957Z,15.90
2022-10-28T08:11:30.590Z,16.15
2022-10-28T08:13:57.368Z,14.40
2022-10-28T08:16:24.642Z,13.63
2022-10-28T08:18:53.083Z,14.73
2022-10-28T08:21:20.012Z,14.32
2022-10-28T08:23:46.966Z,14.38
2022-10-28T08:26:15.433Z,12.60
2022-10-28T08:28:42.889Z,12.70
2022-10-28T08:31:10.241Z,12.57
2022-10-28T08:33:39.102Z,10.82
2022-10-28T08:36:07.529Z,10.85
2022-10-28T08:38:34.159Z,10.00
2022-10-28T08:41:27.378Z,9.90
2022-10-28T08:44:04.211Z,9.18
2022-10-28T08:46:48.814Z,9.63
2022-10-28T08:49:19.647Z,8.27
2022-10-28T08:51:59.143Z,7.40
2022-10-28T08:54:31.977Z,7.30
2022-10-28T08:57:02.512Z,7.50
2022-10-28T08:59:41.164Z,6.32
2022-10-28T09:02:23.376Z,5.97
2022-10-28T09:04:59.648Z,5.25
2022-10-28T09:07:26.512Z,3.53
2022-10-28T09:09:53.760Z,3.35
2022-10-28T09:12:32.148Z,3.40
2022-10-28T09:15:23.031Z,3.47
2022-10-28T09:18:04.782Z,3.08
2022-10-28T09:20:56.908Z,2.78
2022-10-28T09:23:33.280Z,3.50
2022-10-28T09:26:17.671Z,3.28
2022-10-28T09:28:47.432Z,3.22
2022-10-28T09:31:47.355Z,3.40
2022-10-28T09:34:35.296Z,2.95
2022-10-28T09:37:13.893Z,2.92
2022-10-28T09:39:45.220Z,3.00
2022-10-28T09:45:22.755Z,3.08
2022-10-28T09:48:03.379Z,3.53
2022-10-28T09:50:32.694Z,3.53
2022-10-28T09:53:36.054Z,3.05
2022-10-28T09:56:04.612Z,3.30
2022-10-28T09:58:33.040Z,3.10
2022-10-28T10:01:00.398Z,3.40
2022-10-28T10:03:27.030Z,2.80
2022-10-28T10:05:57.307Z,3.58
2022-10-28T10:08:24.510Z,2.88
2022-10-28T10:11:31.661Z,2.78
2022-10-28T10:14:03.172Z,3.30
2022-10-28T10:16:49.777Z,3.20
2022-10-28T10:19:16.768Z,3.72
2022-10-28T10:21:48.709Z,3.60
2022-10-28T10:24:33.856Z,2.90
2022-10-28T10:27:09.601Z,3.38
2022-10-28T10:29:38.125Z,3.17
2022-10-28T10:32:08.352Z,3.28
2022-10-28T10:34:36.169Z,3.30
2022-10-28T10:39:37.574Z,3.38
2022-10-28T10:42:16.483Z,2.97
2022-10-28T10:44:43.746Z,3.50
2022-10-28T10:47:10.369Z,3.67
2022-10-28T10:49:37.228Z,4.10
2022-10-28T10:52:10.179Z,3.83
2022-10-28T10:54:37.996Z,3.35
2022-10-28T10:57:08.928Z,3.17
2022-10-28T10:59:37.789Z,3.33
2022-10-28T11:02:21.237Z,3.70
2022-10-28T11:04:57.787Z,3.33
2022-10-28T11:07:24.814Z,3.75
2022-10-28T11:09:51.744Z,3.40
2022-10-28T11:12:29.132Z,3.38
2022-10-28T11:15:01.401Z,3.30
2022-10-28T11:20:25.371Z,3.47
2022-10-28T11:23:17.047Z,3.75
2022-10-28T11:25:46.748Z,3.65
2022-10-28T11:28:23.756Z,3.78
2022-10-28T11:31:15.783Z,4.25
2022-10-28T11:33:54.401Z,3.45
2022-10-28T11:36:29.013Z,3.70
2022-10-28T11:39:13.204Z,3.47
2022-10-28T11:42:11.166Z,3.40
2022-10-28T11:45:01.742Z,3.00
2022-10-28T11:48:01.233Z,2.83
2022-10-28T11:50:27.834Z,3.80
2022-10-28T11:53:19.024Z,3.17
2022-10-28T11:55:58.604Z,4.60
2022-10-28T11:58:38.157Z,3.85
2022-10-28T12:01:33.525Z,4.15
2022-10-28T12:04:12.490Z,3.47
2022-10-28T12:07:08.679Z,3.20
2022-10-28T12:10:09.731Z,3.53
2022-10-28T12:13:28.320Z,3.80
2022-10-28T12:16:06.898Z,3.63
2022-10-28T12:18:59.889Z,3.40
2022-10-28T12:24:06.646Z,3.90
2022-10-28T12:26:41.659Z,4.00
2022-10-28T12:29:33.892Z,3.78
2022-10-28T12:32:02.671Z,3.65
2022-10-28T12:35:01.270Z,3.83
2022-10-28T12:37:36.618Z,3.75
2022-10-28T12:40:24.590Z,3.63
2022-10-28T12:43:06.109Z,3.95
2022-10-28T12:45:36.575Z,2.97
2022-10-28T12:48:17.758Z,3.50
2022-10-28T12:51:16.405Z,3.53
2022-10-28T12:54:16.331Z,4.55
2022-10-28T12:57:18.310Z,4.55
2022-10-28T13:00:03.900Z,4.45
2022-10-28T13:02:43.797Z,4.38
2022-10-28T13:05:29.188Z,7.63
2022-10-28T13:08:39.371Z,4.22
2022-10-28T13:11:20.802Z,4.55
2022-10-28T13:14:04.419Z,3.78
2022-10-28T13:16:57.411Z,4.20
2022-10-28T13:19:29.339Z,4.28
2022-10-28T13:22:11.226Z,4.30
2022-10-28T13:25:08.915Z,4.70
2022-10-28T13:37:06.095Z,4.40
2022-10-28T13:39:39.615Z,3.95
2022-10-28T13:42:19.670Z,4.63
2022-10-28T13:44:56.797Z,4.50
2022-10-28T13:47:28.955Z,4.00
2022-10-28T13:50:10.485Z,4.57
2022-10-28T13:52:45.748Z,4.57
2022-10-28T13:58:23.182Z,5.00
2022-10-28T14:00:53.634Z,4.03
2022-10-28T14:03:26.254Z,3.72
2022-10-28T14:05:58.441Z,3.85
2022-10-28T14:08:39.694Z,4.30
2022-10-28T14:11:16.702Z,3.92
2022-10-28T14:13:56.885Z,4.00
2022-10-28T14:16:30.447Z,3.92
2022-10-28T14:19:01.244Z,3.97
2022-10-28T14:21:48.509Z,3.85
2022-10-28T14:24:34.305Z,3.63
2022-10-28T14:27:08.115Z,4.05
2022-10-28T14:29:58.312Z,4.25
2022-10-28T14:32:31.011Z,4.40
2022-10-28T14:35:06.042Z,4.65
2022-10-28T14:38:08.106Z,5.20
2022-10-28T14:40:40.604Z,4.45
2022-10-28T14:43:48.627Z,4.53
2022-10-28T14:46:35.986Z,4.90
2022-10-28T14:49:03.988Z,5.10
2022-10-28T14:51:40.297Z,5.45
2022-10-28T14:54:13.360Z,5.13
2022-10-28T14:56:41.248Z,5.47
2022-10-28T14:59:25.698Z,5.13
2022-10-28T15:02:09.156Z,5.75
2022-10-28T15:04:37.219Z,6.05
2022-10-28T15:07:04.089Z,5.55
2022-10-28T15:09:32.908Z,5.18
2022-10-28T15:12:01.451Z,5.40
2022-10-28T15:14:38.944Z,5.03
2022-10-28T15:17:24.263Z,4.78
2022-10-28T15:19:54.119Z,4.13
2022-10-28T15:22:24.931Z,4.88
2022-10-28T15:25:15.456Z,4.60
2022-10-28T15:27:45.724Z,4.25
2022-10-28T15:30:24.488Z,4.70
2022-10-28T15:32:55.544Z,5.07
2022-10-28T15:35:28.225Z,5.03
2022-10-28T15:37:56.715Z,5.15
2022-10-28T15:40:34.899Z,4.78
2022-10-28T15:43:16.691Z,5.07
2022-10-28T15:45:43.395Z,4.40
2022-10-28T15:48:15.013Z,4.35
2022-10-28T15:50:42.086Z,5.65
2022-10-28T15:53:11.671Z,5.10
2022-10-28T15:56:06.898Z,5.35
2022-10-28T15:58:34.226Z,5.38
2022-10-28T16:01:01.002Z,4.93
2022-10-28T16:03:48.008Z,5.35
2022-10-28T16:06:35.152Z,5.32
2022-10-28T16:09:06.131Z,5.50
2022-10-28T16:11:36.591Z,5.53
2022-10-28T16:14:34.373Z,5.28
2022-10-28T16:17:30.680Z,5.07
2022-10-28T16:19:59.811Z,5.00
2022-10-28T16:22:28.600Z,4.43
2022-10-28T16:24:56.108Z,4.70
2022-10-28T16:27:25.764Z,5.70
2022-10-28T16:29:52.752Z,5.00
2022-10-28T16:32:25.773Z,5.32
2022-10-28T16:34:52.373Z,5.38
2022-10-28T16:37:23.211Z,5.75
2022-10-28T16:39:50.194Z,5.93
2022-10-28T16:42:17.568Z,5.20
2022-10-28T16:44:44.427Z,5.13
2022-10-28T16:47:16.245Z,5.25
2022-10-28T16:49:43.195Z,4.78
2022-10-28T16:52:22.360Z,5.20
2022-10-28T16:54:50.511Z,5.43
2022-10-28T16:57:19.589Z,4.68
2022-10-28T16:59:47.136Z,4.22
2022-10-28T17:02:32.695Z,4.75
2022-10-28T17:05:00.792Z,5.20
2022-10-28T17:07:28.629Z,4.70
2022-10-28T17:09:56.738Z,5.40
2022-10-28T17:12:25.882Z,4.53
2022-10-28T17:14:52.948Z,5.35
2022-10-28T17:17:20.429Z,5.40
2022-10-28T17:19:47.271Z,5.57
2022-10-28T17:22:15.100Z,5.22
2022-10-28T17:24:41.746Z,5.55
2022-10-28T17:27:08.622Z,5.30
2022-10-28T17:29:35.284Z,4.60
2022-10-28T17:32:02.414Z,5.20
2022-10-28T17:34:29.178Z,5.32
2022-10-28T17:36:56.018Z,5.43
2022-10-28T17:39:26.125Z,6.05
2022-10-28T17:41:53.598Z,5.00
2022-10-28T17:44:20.571Z,5.65
2022-10-28T17:46:51.335Z,5.70
2022-10-28T17:49:18.533Z,5.40
2022-10-28T17:51:45.274Z,5.80
2022-10-28T17:54:12.170Z,5.15
2022-10-28T17:56:41.722Z,5.95
2022-10-28T17:59:08.592Z,5.50
2022-10-28T18:01:35.795Z,6.10
2022-10-28T18:04:03.659Z,6.47
2022-10-28T18:06:30.309Z,5.43
2022-10-28T18:08:58.287Z,5.38
2022-10-28T18:11:25.388Z,5.93
2022-10-28T18:13:53.522Z,6.18
2022-10-28T18:16:24.124Z,6.13
2022-10-28T18:18:51.523Z,5.70
2022-10-28T18:21:18.140Z,7.15
2022-10-28T18:23:44.780Z,10.20
2022-10-28T18:26:13.813Z,9.00
2022-10-28T18:28:42.058Z,8.18
2022-10-28T18:31:14.169Z,9.50
2022-10-28T18:33:41.858Z,6.18
2022-10-28T18:36:12.288Z,8.95
2022-10-28T18:38:39.529Z,7.25
2022-10-28T18:41:14.481Z,6.47
2022-10-28T18:43:41.849Z,6.50
2022-10-28T18:46:09.329Z,6.88
2022-10-28T18:48:36.574Z,6.93
2022-10-28T18:51:09.800Z,6.82
2022-10-28T18:53:41.935Z,6.63
2022-10-28T18:56:12.536Z,6.43
2022-10-28T18:58:39.339Z,6.57
2022-10-28T19:01:15.311Z,5.60
2022-10-28T19:03:43.128Z,5.60
2022-10-28T19:06:15.447Z,5.90
2022-10-28T19:08:42.771Z,5.65
2022-10-28T19:11:12.346Z,5.53
2022-10-28T19:13:41.263Z,6.07
2022-10-28T19:16:08.773Z,5.35
2022-10-28T19:18:37.324Z,5.93
2022-10-28T19:21:22.374Z,5.80
2022-10-28T19:23:49.057Z,5.90
2022-10-28T19:26:15.762Z,5.65
2022-10-28T19:28:44.939Z,5.45
2022-10-28T19:31:14.003Z,5.15
2022-10-28T19:33:43.077Z,5.68
2022-10-28T19:36:18.733Z,5.90
2022-10-28T19:38:46.885Z,5.38
2022-10-28T19:41:18.332Z,5.65
2022-10-28T19:43:45.489Z,5.70
2022-10-28T19:46:15.507Z,5.10
2022-10-28T19:48:45.467Z,5.43
2022-10-28T19:51:18.141Z,5.35
2022-10-28T19:53:53.643Z,5.63
2022-10-28T19:56:21.071Z,5.68
2022-10-28T19:58:53.269Z,5.80
2022-10-28T20:01:21.781Z,5.53
2022-10-28T20:03:50.880Z,5.90
2022-10-28T20:06:19.610Z,5.30
2022-10-28T20:08:48.014Z,6.45
2022-10-28T20:11:21.386Z,5.95
2022-10-28T20:13:55.936Z,5.93
2022-10-28T20:16:23.542Z,5.57
2022-10-28T20:18:56.585Z,5.47
2022-10-28T20:21:25.796Z,6.50
2022-10-28T20:23:55.079Z,5.45
2022-10-28T20:26:25.706Z,5.47
2022-10-28T20:28:52.489Z,6.25
2022-10-28T20:31:22.227Z,6.65
2022-10-28T20:33:57.746Z,5.18
2022-10-28T20:36:30.208Z,6.00
2022-10-28T20:39:04.149Z,5.75
2022-10-28T20:41:33.332Z,5.03
2022-10-28T20:44:01.342Z,5.00
2022-10-28T20:46:28.103Z,5.75
2022-10-28T20:48:56.454Z,5.55
2022-10-28T20:51:25.600Z,5.45
2022-10-28T20:53:52.260Z,5.45
2022-10-28T20:56:23.940Z,5.68
2022-10-28T20:58:51.377Z,5.45
2022-10-28T21:01:26.787Z,5.85
2022-10-28T21:03:58.899Z,5.85
2022-10-28T21:06:26.142Z,6.30
2022-10-28T21:08:56.544Z,5.93
2022-10-28T21:11:24.418Z,6.50
2022-10-28T21:13:53.041Z,6.00
2022-10-28T21:16:20.957Z,5.32
2022-10-28T21:18:47.892Z,5.65
2022-10-28T21:21:14.819Z,6.25
2022-10-28T21:23:41.794Z,5.50
2022-10-28T21:26:10.405Z,5.15
2022-10-28T21:28:37.186Z,5.85
2022-10-28T21:31:16.285Z,5.68
2022-10-28T21:33:43.823Z,7.00
2022-10-28T21:36:17.122Z,5.85
2022-10-28T21:38:44.435Z,5.60
2022-10-28T21:46:48.725Z,6.32
2022-10-28T21:49:20.711Z,6.40
2022-10-28T21:51:47.724Z,6.30
2022-10-28T21:56:59.073Z,7.75
2022-10-28T22:03:15.459Z,8.73
2022-10-28T22:05:59.384Z,10.13
2022-10-28T22:08:27.107Z,8.70
2022-10-28T22:11:09.025Z,8.93
2022-10-28T22:19:20.792Z,7.40
2022-10-28T22:21:47.748Z,8.43
2022-10-28T22:24:18.469Z,8.18
2022-10-28T22:26:51.718Z,7.60
2022-10-28T22:29:26.872Z,8.32
2022-10-28T22:34:42.563Z,8.02
2022-10-28T22:37:09.255Z,8.73
2022-10-28T22:39:39.206Z,8.35
2022-10-28T22:42:06.102Z,8.40
2022-10-28T22:44:33.533Z,8.07
2022-10-28T22:49:27.895Z,7.90
2022-10-28T22:51:55.088Z,8.50
2022-10-28T22:54:25.182Z,6.90
2022-10-28T22:56:52.329Z,7.25
2022-10-28T22:59:19.105Z,6.85
2022-10-28T23:01:45.895Z,7.85
2022-10-28T23:04:12.769Z,7.45
2022-10-28T23:06:39.435Z,8.18
2022-10-28T23:09:06.206Z,8.45
2022-10-28T23:11:32.976Z,7.90
2022-10-28T23:13:59.797Z,7.40
2022-10-28T23:16:26.498Z,8.80
2022-10-28T23:18:53.333Z,8.00
2022-10-28T23:21:22.722Z,7.68
2022-10-28T23:23:56.767Z,8.90
2022-10-28T23:26:24.232Z,9.00
2022-10-28T23:28:56.437Z,8.15
2022-10-28T23:31:23.874Z,8.95
2022-10-28T23:33:50.977Z,11.30
2022-10-28T23:36:17.880Z,11.75
2022-10-28T23:38:44.641Z,9.73
2022-10-28T23:41:16.034Z,9.07
2022-10-28T23:43:43.044Z,9.10
2022-10-28T23:46:10.329Z,9.27
2022-10-28T23:48:37.259Z,9.32
2022-10-28T23:51:04.075Z,9.20
2022-10-28T23:53:31.166Z,9.93
2022-10-28T23:55:58.364Z,9.20
2022-10-28T23:58:25.138Z,9.57
